sensor_id;sensor_type;location;lat;lon;timestamp;P1;durP1;ratioP1;P2;durP2;ratioP2
40997;SDS011;26740;45.944;12.480;2022-12-05T00:01:18;3.53;;;1.92;;
40997;SDS011;26740;45.944;12.480;2022-12-05T00:03:49;3.90;;;2.22;;
40997;SDS011;26740;45.944;12.480;2022-12-05T00:06:16;4.20;;;2.00;;
40997;SDS011;26740;45.944;12.480;2022-12-05T00:08:43;3.45;;;1.80;;
40997;SDS011;26740;45.944;12.480;2022-12-05T00:11:10;3.80;;;2.67;;
40997;SDS011;26740;45.944;12.480;2022-12-05T00:13:41;8.20;;;1.83;;
40997;SDS011;26740;45.944;12.480;2022-12-05T00:16:08;4.57;;;2.17;;
40997;SDS011;26740;45.944;12.480;2022-12-05T00:18:34;3.33;;;1.52;;
40997;SDS011;26740;45.944;12.480;2022-12-05T00:21:00;6.32;;;2.03;;
40997;SDS011;26740;45.944;12.480;2022-12-05T00:23:26;4.63;;;2.63;;
40997;SDS011;26740;45.944;12.480;2022-12-05T00:25:51;6.25;;;2.90;;
40997;SDS011;26740;45.944;12.480;2022-12-05T00:28:17;3.60;;;2.58;;
40997;SDS011;26740;45.944;12.480;2022-12-05T00:30:43;5.35;;;3.00;;
40997;SDS011;26740;45.944;12.480;2022-12-05T00:33:08;4.70;;;2.53;;
40997;SDS011;26740;45.944;12.480;2022-12-05T00:35:34;5.63;;;2.65;;
40997;SDS011;26740;45.944;12.480;2022-12-05T00:38:00;3.80;;;2.05;;
40997;SDS011;26740;45.944;12.480;2022-12-05T00:40:25;5.47;;;2.17;;
40997;SDS011;26740;45.944;12.480;2022-12-05T00:42:51;4.38;;;2.67;;
40997;SDS011;26740;45.944;12.480;2022-12-05T00:45:16;4.95;;;2.45;;
40997;SDS011;26740;45.944;12.480;2022-12-05T00:47:42;4.22;;;2.60;;
40997;SDS011;26740;45.944;12.480;2022-12-05T00:50:08;2.53;;;1.65;;
40997;SDS011;26740;45.944;12.480;2022-12-05T00:52:33;3.80;;;2.25;;
40997;SDS011;26740;45.944;12.480;2022-12-05T00:54:59;4.32;;;2.33;;
40997;SDS011;26740;45.944;12.480;2022-12-05T00:57:24;4.80;;;3.05;;
40997;SDS011;26740;45.944;12.480;2022-12-05T00:59:50;4.20;;;2.78;;
40997;SDS011;26740;45.944;12.480;2022-12-05T01:02:17;2.97;;;2.00;;
40997;SDS011;26740;45.944;12.480;2022-12-05T01:04:42;2.42;;;1.23;;
40997;SDS011;26740;45.944;12.480;2022-12-05T01:07:08;2.60;;;1.48;;
40997;SDS011;26740;45.944;12.480;2022-12-05T01:09:34;4.50;;;2.22;;
40997;SDS011;26740;45.944;12.480;2022-12-05T01:12:00;4.63;;;2.58;;
40997;SDS011;26740;45.944;12.480;2022-12-05T01:14:25;3.72;;;1.90;;
40997;SDS011;26740;45.944;12.480;2022-12-05T01:16:52;3.53;;;2.08;;
40997;SDS011;26740;45.944;12.480;2022-12-05T01:19:20;3.40;;;1.85;;
40997;SDS011;26740;45.944;12.480;2022-12-05T01:21:48;4.30;;;2.53;;
40997;SDS011;26740;45.944;12.480;2022-12-05T01:24:14;4.15;;;2.15;;
40997;SDS011;26740;45.944;12.480;2022-12-05T01:26:41;3.70;;;2.00;;
40997;SDS011;26740;45.944;12.480;2022-12-05T01:29:13;2.97;;;2.08;;
40997;SDS011;26740;45.944;12.480;2022-12-05T01:31:40;6.20;;;2.47;;
40997;SDS011;26740;45.944;12.480;2022-12-05T01:34:08;4.22;;;2.25;;
40997;SDS011;26740;45.944;12.480;2022-12-05T01:36:36;3.25;;;2.42;;
40997;SDS011;26740;45.944;12.480;2022-12-05T01:39:04;2.38;;;2.05;;
40997;SDS011;26740;45.944;12.480;2022-12-05T01:41:31;4.60;;;2.08;;
40997;SDS011;26740;45.944;12.480;2022-12-05T01:46:44;6.05;;;2.25;;
40997;SDS011;26740;45.944;12.480;2022-12-05T01:49:14;3.05;;;1.83;;
40997;SDS011;26740;45.944;12.480;2022-12-05T01:51:52;3.38;;;2.35;;
40997;SDS011;26740;45.944;12.480;2022-12-05T01:54:21;2.78;;;1.80;;
40997;SDS011;26740;45.944;12.480;2022-12-05T01:56:49;6.07;;;1.88;;
40997;SDS011;26740;45.944;12.480;2022-12-05T01:59:27;4.10;;;1.83;;
40997;SDS011;26740;45.944;12.480;2022-12-05T02:01:54;2.47;;;1.88;;
40997;SDS011;26740;45.944;12.480;2022-12-05T02:04:20;3.08;;;1.45;;
40997;SDS011;26740;45.944;12.480;2022-12-05T02:06:46;5.55;;;2.38;;
40997;SDS011;26740;45.944;12.480;2022-12-05T02:09:11;3.05;;;1.50;;
40997;SDS011;26740;45.944;12.480;2022-12-05T02:11:43;3.08;;;1.67;;
40997;SDS011;26740;45.944;12.480;2022-12-05T02:30:41;4.38;;;2.35;;
40997;SDS011;26740;45.944;12.480;2022-12-05T02:33:33;4.05;;;2.00;;
40997;SDS011;26740;45.944;12.480;2022-12-05T02:41:23;2.88;;;1.98;;
40997;SDS011;26740;45.944;12.480;2022-12-05T02:43:59;3.22;;;1.85;;
40997;SDS011;26740;45.944;12.480;2022-12-05T02:46:27;2.72;;;2.00;;
40997;SDS011;26740;45.944;12.480;2022-12-05T02:48:57;2.80;;;1.60;;
40997;SDS011;26740;45.944;12.480;2022-12-05T02:51:28;2.83;;;1.67;;
40997;SDS011;26740;45.944;12.480;2022-12-05T02:54:01;2.85;;;1.77;;
40997;SDS011;26740;45.944;12.480;2022-12-05T02:56:31;3.30;;;2.00;;
40997;SDS011;26740;45.944;12.480;2022-12-05T02:58:58;3.28;;;2.63;;
40997;SDS011;26740;45.944;12.480;2022-12-05T03:01:27;3.50;;;2.70;;
40997;SDS011;26740;45.944;12.480;2022-12-05T03:03:56;6.35;;;2.67;;
40997;SDS011;26740;45.944;12.480;2022-12-05T03:06:29;6.13;;;3.30;;
40997;SDS011;26740;45.944;12.480;2022-12-05T03:12:01;4.13;;;2.75;;
40997;SDS011;26740;45.944;12.480;2022-12-05T03:14:45;5.68;;;2.80;;
40997;SDS011;26740;45.944;12.480;2022-12-05T03:17:16;4.90;;;3.00;;
40997;SDS011;26740;45.944;12.480;2022-12-05T03:22:47;4.22;;;2.40;;
40997;SDS011;26740;45.944;12.480;2022-12-05T03:25:15;5.43;;;3.47;;
40997;SDS011;26740;45.944;12.480;2022-12-05T03:30:16;5.95;;;3.65;;
40997;SDS011;26740;45.944;12.480;2022-12-05T03:35:17;3.83;;;2.73;;
40997;SDS011;26740;45.944;12.480;2022-12-05T03:40:30;3.80;;;2.40;;
40997;SDS011;26740;45.944;12.480;2022-12-05T03:43:17;3.15;;;2.80;;
40997;SDS011;26740;45.944;12.480;2022-12-05T03:46:02;3.35;;;1.45;;
40997;SDS011;26740;45.944;12.480;2022-12-05T03:51:03;2.60;;;1.70;;
40997;SDS011;26740;45.944;12.480;2022-12-05T03:53:36;2.63;;;1.45;;
40997;SDS011;26740;45.944;12.480;2022-12-05T03:56:07;4.20;;;1.63;;
40997;SDS011;26740;45.944;12.480;2022-12-05T03:58:42;2.97;;;0.88;;
40997;SDS011;26740;45.944;12.480;2022-12-05T04:01:31;1.77;;;1.27;;
40997;SDS011;26740;45.944;12.480;2022-12-05T04:04:02;1.63;;;0.88;;
40997;SDS011;26740;45.944;12.480;2022-12-05T04:06:36;1.08;;;0.60;;
40997;SDS011;26740;45.944;12.480;2022-12-05T04:09:07;1.73;;;0.68;;
40997;SDS011;26740;45.944;12.480;2022-12-05T04:11:44;1.08;;;0.47;;
40997;SDS011;26740;45.944;12.480;2022-12-05T04:14:16;1.10;;;0.50;;
40997;SDS011;26740;45.944;12.480;2022-12-05T04:22:26;1.50;;;0.40;;
40997;SDS011;26740;45.944;12.480;2022-12-05T04:24:53;2.45;;;0.68;;
40997;SDS011;26740;45.944;12.480;2022-12-05T04:27:41;1.85;;;0.77;;
40997;SDS011;26740;45.944;12.480;2022-12-05T04:30:17;0.60;;;0.30;;
40997;SDS011;26740;45.944;12.480;2022-12-05T04:35:18;1.08;;;0.30;;
40997;SDS011;26740;45.944;12.480;2022-12-05T04:37:49;1.38;;;0.60;;
40997;SDS011;26740;45.944;12.480;2022-12-05T04:40:28;0.98;;;0.60;;
40997;SDS011;26740;45.944;12.480;2022-12-05T04:43:01;1.50;;;0.40;;
40997;SDS011;26740;45.944;12.480;2022-12-05T04:45:30;2.30;;;0.52;;
40997;SDS011;26740;45.944;12.480;2022-12-05T04:47:59;0.75;;;0.32;;
40997;SDS011;26740;45.944;12.480;2022-12-05T04:50:29;0.90;;;0.40;;
40997;SDS011;26740;45.944;12.480;2022-12-05T04:52:57;0.68;;;0.40;;
40997;SDS011;26740;45.944;12.480;2022-12-05T04:55:27;1.23;;;0.50;;
40997;SDS011;26740;45.944;12.480;2022-12-05T04:58:13;2.22;;;0.57;;
40997;SDS011;26740;45.944;12.480;2022-12-05T05:00:49;1.45;;;0.60;;
40997;SDS011;26740;45.944;12.480;2022-12-05T05:05:57;4.35;;;0.80;;
40997;SDS011;26740;45.944;12.480;2022-12-05T05:08:24;1.80;;;1.38;;
40997;SDS011;26740;45.944;12.480;2022-12-05T05:13:41;4.20;;;1.40;;
40997;SDS011;26740;45.944;12.480;2022-12-05T05:16:11;2.25;;;1.00;;
40997;SDS011;26740;45.944;12.480;2022-12-05T05:18:42;2.72;;;1.25;;
40997;SDS011;26740;45.944;12.480;2022-12-05T05:21:13;2.47;;;0.77;;
40997;SDS011;26740;45.944;12.480;2022-12-05T05:23:55;3.55;;;0.82;;
40997;SDS011;26740;45.944;12.480;2022-12-05T05:26:21;2.67;;;0.75;;
40997;SDS011;26740;45.944;12.480;2022-12-05T05:28:49;5.05;;;1.05;;
40997;SDS011;26740;45.944;12.480;2022-12-05T05:31:15;4.65;;;1.65;;
40997;SDS011;26740;45.944;12.480;2022-12-05T05:33:42;5.43;;;2.50;;
40997;SDS011;26740;45.944;12.480;2022-12-05T05:36:09;3.83;;;0.90;;
40997;SDS011;26740;45.944;12.480;2022-12-05T05:38:38;3.43;;;1.47;;
40997;SDS011;26740;45.944;12.480;2022-12-05T05:41:05;2.00;;;1.42;;
40997;SDS011;26740;45.944;12.480;2022-12-05T05:43:47;2.05;;;1.52;;
40997;SDS011;26740;45.944;12.480;2022-12-05T05:46:14;5.18;;;1.50;;
40997;SDS011;26740;45.944;12.480;2022-12-05T05:48:41;5.72;;;1.50;;
40997;SDS011;26740;45.944;12.480;2022-12-05T05:51:08;2.42;;;1.13;;
40997;SDS011;26740;45.944;12.480;2022-12-05T05:53:35;4.45;;;1.90;;
40997;SDS011;26740;45.944;12.480;2022-12-05T05:56:02;2.38;;;1.60;;
40997;SDS011;26740;45.944;12.480;2022-12-05T05:58:29;1.95;;;0.95;;
40997;SDS011;26740;45.944;12.480;2022-12-05T06:01:01;2.85;;;1.13;;
40997;SDS011;26740;45.944;12.480;2022-12-05T06:03:30;4.38;;;1.83;;
40997;SDS011;26740;45.944;12.480;2022-12-05T06:05:57;2.38;;;1.95;;
40997;SDS011;26740;45.944;12.480;2022-12-05T06:08:24;7.22;;;1.83;;
40997;SDS011;26740;45.944;12.480;2022-12-05T06:10:50;2.97;;;1.92;;
40997;SDS011;26740;45.944;12.480;2022-12-05T06:13:15;2.92;;;1.60;;
40997;SDS011;26740;45.944;12.480;2022-12-05T06:15:41;2.47;;;1.83;;
40997;SDS011;26740;45.944;12.480;2022-12-05T06:18:06;5.20;;;2.38;;
40997;SDS011;26740;45.944;12.480;2022-12-05T06:20:32;2.33;;;1.33;;
40997;SDS011;26740;45.944;12.480;2022-12-05T06:22:58;5.05;;;1.50;;
40997;SDS011;26740;45.944;12.480;2022-12-05T06:25:23;2.00;;;1.52;;
40997;SDS011;26740;45.944;12.480;2022-12-05T06:27:49;3.30;;;2.38;;
40997;SDS011;26740;45.944;12.480;2022-12-05T06:30:15;3.83;;;2.50;;
40997;SDS011;26740;45.944;12.480;2022-12-05T06:32:40;4.72;;;2.38;;
40997;SDS011;26740;45.944;12.480;2022-12-05T06:35:06;3.95;;;2.40;;
40997;SDS011;26740;45.944;12.480;2022-12-05T06:37:39;3.47;;;1.73;;
40997;SDS011;26740;45.944;12.480;2022-12-05T06:40:10;2.90;;;2.58;;
40997;SDS011;26740;45.944;12.480;2022-12-05T06:42:36;3.00;;;2.10;;
40997;SDS011;26740;45.944;12.480;2022-12-05T06:45:03;3.08;;;1.83;;
40997;SDS011;26740;45.944;12.480;2022-12-05T06:47:29;4.53;;;2.13;;
40997;SDS011;26740;45.944;12.480;2022-12-05T06:49:55;3.08;;;1.73;;
40997;SDS011;26740;45.944;12.480;2022-12-05T06:52:21;1.48;;;1.33;;
40997;SDS011;26740;45.944;12.480;2022-12-05T06:54:47;3.38;;;1.63;;
40997;SDS011;26740;45.944;12.480;2022-12-05T06:57:13;2.63;;;2.00;;
40997;SDS011;26740;45.944;12.480;2022-12-05T06:59:39;4.10;;;2.17;;
40997;SDS011;26740;45.944;12.480;2022-12-05T07:02:05;4.15;;;2.40;;
40997;SDS011;26740;45.944;12.480;2022-12-05T07:04:34;2.60;;;2.03;;
40997;SDS011;26740;45.944;12.480;2022-12-05T07:07:00;4.88;;;2.42;;
40997;SDS011;26740;45.944;12.480;2022-12-05T07:09:28;3.33;;;1.83;;
40997;SDS011;26740;45.944;12.480;2022-12-05T07:12:14;4.95;;;2.90;;
40997;SDS011;26740;45.944;12.480;2022-12-05T07:14:41;3.97;;;3.03;;
40997;SDS011;26740;45.944;12.480;2022-12-05T07:17:07;11.00;;;5.75;;
40997;SDS011;26740;45.944;12.480;2022-12-05T07:19:33;7.93;;;3.47;;
40997;SDS011;26740;45.944;12.480;2022-12-05T07:21:59;5.55;;;3.70;;
40997;SDS011;26740;45.944;12.480;2022-12-05T07:24:24;5.32;;;3.53;;
40997;SDS011;26740;45.944;12.480;2022-12-05T07:26:50;12.95;;;8.07;;
40997;SDS011;26740;45.944;12.480;2022-12-05T07:29:16;7.13;;;5.43;;
40997;SDS011;26740;45.944;12.480;2022-12-05T07:31:41;14.32;;;7.20;;
40997;SDS011;26740;45.944;12.480;2022-12-05T07:34:07;14.02;;;8.95;;
40997;SDS011;26740;45.944;12.480;2022-12-05T07:36:33;8.68;;;5.15;;
40997;SDS011;26740;45.944;12.480;2022-12-05T07:38:59;6.35;;;3.55;;
40997;SDS011;26740;45.944;12.480;2022-12-05T07:41:26;6.00;;;4.00;;
40997;SDS011;26740;45.944;12.480;2022-12-05T07:43:55;7.75;;;3.45;;
40997;SDS011;26740;45.944;12.480;2022-12-05T07:46:23;7.97;;;4.05;;
40997;SDS011;26740;45.944;12.480;2022-12-05T07:48:50;5.70;;;3.72;;
40997;SDS011;26740;45.944;12.480;2022-12-05T07:51:17;4.97;;;2.97;;
40997;SDS011;26740;45.944;12.480;2022-12-05T07:53:43;3.25;;;2.28;;
40997;SDS011;26740;45.944;12.480;2022-12-05T07:56:11;5.47;;;2.13;;
40997;SDS011;26740;45.944;12.480;2022-12-05T07:58:41;3.30;;;2.28;;
40997;SDS011;26740;45.944;12.480;2022-12-05T08:01:09;3.33;;;2.30;;
40997;SDS011;26740;45.944;12.480;2022-12-05T08:03:36;8.85;;;7.28;;
40997;SDS011;26740;45.944;12.480;2022-12-05T08:06:03;2.97;;;2.08;;
40997;SDS011;26740;45.944;12.480;2022-12-05T08:08:30;3.72;;;2.05;;
40997;SDS011;26740;45.944;12.480;2022-12-05T08:10:56;4.32;;;1.83;;
40997;SDS011;26740;45.944;12.480;2022-12-05T08:13:27;4.60;;;1.75;;
40997;SDS011;26740;45.944;12.480;2022-12-05T08:15:53;2.85;;;1.95;;
40997;SDS011;26740;45.944;12.480;2022-12-05T08:18:19;3.08;;;1.80;;
40997;SDS011;26740;45.944;12.480;2022-12-05T08:20:45;2.00;;;1.35;;
40997;SDS011;26740;45.944;12.480;2022-12-05T08:23:10;2.33;;;1.95;;
40997;SDS011;26740;45.944;12.480;2022-12-05T08:25:36;2.45;;;2.08;;
40997;SDS011;26740;45.944;12.480;2022-12-05T08:28:02;2.83;;;2.35;;
40997;SDS011;26740;45.944;12.480;2022-12-05T08:30:27;3.08;;;1.67;;
40997;SDS011;26740;45.944;12.480;2022-12-05T08:32:53;2.03;;;1.52;;
40997;SDS011;26740;45.944;12.480;2022-12-05T08:35:18;4.30;;;1.80;;
40997;SDS011;26740;45.944;12.480;2022-12-05T08:37:44;1.40;;;1.20;;
40997;SDS011;26740;45.944;12.480;2022-12-05T08:40:10;2.50;;;1.33;;
40997;SDS011;26740;45.944;12.480;2022-12-05T08:42:36;6.47;;;1.55;;
40997;SDS011;26740;45.944;12.480;2022-12-05T08:45:01;2.40;;;1.15;;
40997;SDS011;26740;45.944;12.480;2022-12-05T08:47:27;2.22;;;0.80;;
40997;SDS011;26740;45.944;12.480;2022-12-05T08:49:53;2.72;;;1.27;;
40997;SDS011;26740;45.944;12.480;2022-12-05T08:52:18;2.75;;;2.00;;
40997;SDS011;26740;45.944;12.480;2022-12-05T08:54:45;2.95;;;1.58;;
40997;SDS011;26740;45.944;12.480;2022-12-05T08:57:11;7.35;;;5.72;;
40997;SDS011;26740;45.944;12.480;2022-12-05T08:59:37;7.88;;;4.60;;
40997;SDS011;26740;45.944;12.480;2022-12-05T09:02:02;8.02;;;4.40;;
40997;SDS011;26740;45.944;12.480;2022-12-05T09:04:28;5.45;;;3.67;;
40997;SDS011;26740;45.944;12.480;2022-12-05T09:06:54;7.13;;;5.07;;
40997;SDS011;26740;45.944;12.480;2022-12-05T09:09:19;9.65;;;6.85;;
40997;SDS011;26740;45.944;12.480;2022-12-05T09:11:45;13.40;;;7.78;;
40997;SDS011;26740;45.944;12.480;2022-12-05T09:14:13;12.00;;;6.00;;
40997;SDS011;26740;45.944;12.480;2022-12-05T09:16:39;2.95;;;2.00;;
40997;SDS011;26740;45.944;12.480;2022-12-05T09:19:10;3.55;;;2.40;;
40997;SDS011;26740;45.944;12.480;2022-12-05T09:21:38;2.00;;;1.75;;
40997;SDS011;26740;45.944;12.480;2022-12-05T09:24:03;2.53;;;2.33;;
40997;SDS011;26740;45.944;12.480;2022-12-05T09:26:29;4.05;;;1.42;;
40997;SDS011;26740;45.944;12.480;2022-12-05T09:28:55;2.38;;;1.55;;
40997;SDS011;26740;45.944;12.480;2022-12-05T09:31:21;2.40;;;1.63;;
40997;SDS011;26740;45.944;12.480;2022-12-05T09:33:50;3.20;;;1.27;;
40997;SDS011;26740;45.944;12.480;2022-12-05T09:36:17;4.97;;;1.90;;
40997;SDS011;26740;45.944;12.480;2022-12-05T09:38:47;5.43;;;2.08;;
40997;SDS011;26740;45.944;12.480;2022-12-05T09:44:29;1.20;;;0.90;;
40997;SDS011;26740;45.944;12.480;2022-12-05T09:47:47;4.50;;;0.70;;
40997;SDS011;26740;45.944;12.480;2022-12-05T09:55:52;1.98;;;0.60;;
40997;SDS011;26740;45.944;12.480;2022-12-05T09:58:44;1.23;;;0.90;;
40997;SDS011;26740;45.944;12.480;2022-12-05T10:04:12;1.15;;;0.60;;
40997;SDS011;26740;45.944;12.480;2022-12-05T10:12:16;1.38;;;0.63;;
40997;SDS011;26740;45.944;12.480;2022-12-05T10:14:52;1.70;;;0.63;;
40997;SDS011;26740;45.944;12.480;2022-12-05T10:17:30;2.03;;;0.73;;
40997;SDS011;26740;45.944;12.480;2022-12-05T10:25:09;2.05;;;1.30;;
40997;SDS011;26740;45.944;12.480;2022-12-05T10:27:44;1.30;;;0.70;;
40997;SDS011;26740;45.944;12.480;2022-12-05T10:30:17;0.90;;;0.73;;
40997;SDS011;26740;45.944;12.480;2022-12-05T10:35:38;1.35;;;0.88;;
40997;SDS011;26740;45.944;12.480;2022-12-05T10:38:06;2.20;;;1.13;;
40997;SDS011;26740;45.944;12.480;2022-12-05T10:40:49;4.25;;;1.17;;
40997;SDS011;26740;45.944;12.480;2022-12-05T10:43:28;1.50;;;0.90;;
40997;SDS011;26740;45.944;12.480;2022-12-05T10:45:55;1.38;;;0.85;;
40997;SDS011;26740;45.944;12.480;2022-12-05T10:48:22;2.90;;;1.25;;
40997;SDS011;26740;45.944;12.480;2022-12-05T10:50:50;2.58;;;1.35;;
40997;SDS011;26740;45.944;12.480;2022-12-05T10:53:18;7.53;;;1.33;;
40997;SDS011;26740;45.944;12.480;2022-12-05T10:55:49;8.05;;;1.00;;
40997;SDS011;26740;45.944;12.480;2022-12-05T10:58:16;5.05;;;1.13;;
40997;SDS011;26740;45.944;12.480;2022-12-05T11:00:53;4.88;;;1.60;;
40997;SDS011;26740;45.944;12.480;2022-12-05T11:03:29;5.55;;;1.92;;
40997;SDS011;26740;45.944;12.480;2022-12-05T11:05:58;4.53;;;1.77;;
40997;SDS011;26740;45.944;12.480;2022-12-05T11:08:30;6.72;;;2.00;;
40997;SDS011;26740;45.944;12.480;2022-12-05T11:11:04;5.35;;;2.00;;
40997;SDS011;26740;45.944;12.480;2022-12-05T11:13:54;6.78;;;3.50;;
40997;SDS011;26740;45.944;12.480;2022-12-05T11:16:32;4.22;;;1.60;;
40997;SDS011;26740;45.944;12.480;2022-12-05T11:21:46;3.22;;;0.88;;
40997;SDS011;26740;45.944;12.480;2022-12-05T11:26:53;2.78;;;0.90;;
40997;SDS011;26740;45.944;12.480;2022-12-05T11:29:30;4.28;;;1.23;;
40997;SDS011;26740;45.944;12.480;2022-12-05T11:32:03;2.58;;;1.17;;
40997;SDS011;26740;45.944;12.480;2022-12-05T11:34:40;3.05;;;1.40;;
40997;SDS011;26740;45.944;12.480;2022-12-05T11:37:12;4.80;;;1.40;;
40997;SDS011;26740;45.944;12.480;2022-12-05T11:39:46;3.42;;;1.60;;
40997;SDS011;26740;45.944;12.480;2022-12-05T11:42:15;3.25;;;1.77;;
40997;SDS011;26740;45.944;12.480;2022-12-05T11:45:04;3.20;;;0.90;;
40997;SDS011;26740;45.944;12.480;2022-12-05T11:53:15;2.40;;;1.33;;
40997;SDS011;26740;45.944;12.480;2022-12-05T12:01:29;3.63;;;1.70;;
40997;SDS011;26740;45.944;12.480;2022-12-05T12:04:12;2.20;;;1.00;;
40997;SDS011;26740;45.944;12.480;2022-12-05T12:06:59;3.35;;;1.27;;
40997;SDS011;26740;45.944;12.480;2022-12-05T12:12:50;1.92;;;1.40;;
40997;SDS011;26740;45.944;12.480;2022-12-05T12:15:40;2.17;;;1.10;;
40997;SDS011;26740;45.944;12.480;2022-12-05T12:29:08;1.40;;;0.32;;
40997;SDS011;26740;45.944;12.480;2022-12-05T12:31:58;1.30;;;0.20;;
40997;SDS011;26740;45.944;12.480;2022-12-05T12:38:10;0.32;;;0.20;;
40997;SDS011;26740;45.944;12.480;2022-12-05T12:40:59;2.45;;;0.20;;
40997;SDS011;26740;45.944;12.480;2022-12-05T12:43:36;1.08;;;0.20;;
40997;SDS011;26740;45.944;12.480;2022-12-05T12:51:35;0.30;;;0.20;;
40997;SDS011;26740;45.944;12.480;2022-12-05T13:02:21;0.90;;;0.35;;
40997;SDS011;26740;45.944;12.480;2022-12-05T13:05:15;0.88;;;0.30;;
40997;SDS011;26740;45.944;12.480;2022-12-05T13:08:06;0.82;;;0.50;;
40997;SDS011;26740;45.944;12.480;2022-12-05T13:10:53;2.72;;;1.02;;
40997;SDS011;26740;45.944;12.480;2022-12-05T13:13:26;1.10;;;0.77;;
40997;SDS011;26740;45.944;12.480;2022-12-05T13:15:58;1.65;;;0.65;;
40997;SDS011;26740;45.944;12.480;2022-12-05T13:18:25;3.20;;;1.08;;
40997;SDS011;26740;45.944;12.480;2022-12-05T13:20:58;4.95;;;0.68;;
40997;SDS011;26740;45.944;12.480;2022-12-05T13:23:28;1.15;;;0.73;;
40997;SDS011;26740;45.944;12.480;2022-12-05T13:25:57;2.00;;;0.90;;
40997;SDS011;26740;45.944;12.480;2022-12-05T13:28:26;7.63;;;3.50;;
40997;SDS011;26740;45.944;12.480;2022-12-05T13:30:54;8.63;;;3.45;;
40997;SDS011;26740;45.944;12.480;2022-12-05T13:33:25;8.35;;;3.80;;
40997;SDS011;26740;45.944;12.480;2022-12-05T13:35:56;6.90;;;2.85;;
40997;SDS011;26740;45.944;12.480;2022-12-05T13:38:54;3.13;;;1.45;;
40997;SDS011;26740;45.944;12.480;2022-12-05T13:41:51;4.13;;;0.93;;
40997;SDS011;26740;45.944;12.480;2022-12-05T13:45:24;2.38;;;1.13;;
40997;SDS011;26740;45.944;12.480;2022-12-05T13:52:31;4.15;;;1.33;;
40997;SDS011;26740;45.944;12.480;2022-12-05T13:55:13;2.20;;;1.20;;
40997;SDS011;26740;45.944;12.480;2022-12-05T13:57:52;3.75;;;1.55;;
40997;SDS011;26740;45.944;12.480;2022-12-05T14:00:21;2.72;;;1.52;;
40997;SDS011;26740;45.944;12.480;2022-12-05T14:05:46;3.60;;;1.00;;
40997;SDS011;26740;45.944;12.480;2022-12-05T14:15:54;6.30;;;4.68;;
40997;SDS011;26740;45.944;12.480;2022-12-05T14:18:53;6.50;;;4.60;;
40997;SDS011;26740;45.944;12.480;2022-12-05T14:21:41;3.97;;;2.72;;
40997;SDS011;26740;45.944;12.480;2022-12-05T14:30:03;4.78;;;2.70;;
40997;SDS011;26740;45.944;12.480;2022-12-05T14:32:40;3.88;;;2.85;;
40997;SDS011;26740;45.944;12.480;2022-12-05T14:37:51;4.30;;;2.17;;
40997;SDS011;26740;45.944;12.480;2022-12-05T14:42:57;5.22;;;4.13;;
40997;SDS011;26740;45.944;12.480;2022-12-05T14:45:39;7.18;;;4.00;;
40997;SDS011;26740;45.944;12.480;2022-12-05T14:50:41;5.25;;;4.15;;
40997;SDS011;26740;45.944;12.480;2022-12-05T14:56:27;3.15;;;2.47;;
40997;SDS011;26740;45.944;12.480;2022-12-05T14:58:49;5.30;;;2.80;;
40997;SDS011;26740;45.944;12.480;2022-12-05T15:01:53;5.38;;;3.20;;
40997;SDS011;26740;45.944;12.480;2022-12-05T15:07:07;6.03;;;4.25;;
40997;SDS011;26740;45.944;12.480;2022-12-05T15:09:56;4.85;;;4.28;;
40997;SDS011;26740;45.944;12.480;2022-12-05T15:12:39;5.57;;;3.90;;
40997;SDS011;26740;45.944;12.480;2022-12-05T15:23:38;5.10;;;3.15;;
40997;SDS011;26740;45.944;12.480;2022-12-05T15:37:03;15.18;;;5.72;;
40997;SDS011;26740;45.944;12.480;2022-12-05T15:40:08;13.32;;;5.53;;
40997;SDS011;26740;45.944;12.480;2022-12-05T15:42:42;7.90;;;3.92;;
40997;SDS011;26740;45.944;12.480;2022-12-05T15:47:42;4.90;;;3.05;;
40997;SDS011;26740;45.944;12.480;2022-12-05T15:55:09;7.38;;;3.65;;
40997;SDS011;26740;45.944;12.480;2022-12-05T15:57:44;7.70;;;4.38;;
40997;SDS011;26740;45.944;12.480;2022-12-05T16:00:15;6.90;;;4.68;;
40997;SDS011;26740;45.944;12.480;2022-12-05T16:05:20;10.95;;;4.82;;
40997;SDS011;26740;45.944;12.480;2022-12-05T16:07:53;11.65;;;4.93;;
40997;SDS011;26740;45.944;12.480;2022-12-05T16:10:19;12.85;;;7.55;;
40997;SDS011;26740;45.944;12.480;2022-12-05T16:12:47;28.23;;;19.63;;
40997;SDS011;26740;45.944;12.480;2022-12-05T16:15:19;12.07;;;8.52;;
40997;SDS011;26740;45.944;12.480;2022-12-05T16:17:54;10.10;;;6.63;;
40997;SDS011;26740;45.944;12.480;2022-12-05T16:22:53;9.48;;;5.75;;
40997;SDS011;26740;45.944;12.480;2022-12-05T16:25:24;12.50;;;6.90;;
40997;SDS011;26740;45.944;12.480;2022-12-05T16:27:58;11.63;;;6.50;;
40997;SDS011;26740;45.944;12.480;2022-12-05T16:30:33;8.95;;;5.28;;
40997;SDS011;26740;45.944;12.480;2022-12-05T16:33:02;7.93;;;4.95;;
40997;SDS011;26740;45.944;12.480;2022-12-05T16:35:37;8.32;;;5.95;;
40997;SDS011;26740;45.944;12.480;2022-12-05T16:40:37;9.80;;;5.28;;
40997;SDS011;26740;45.944;12.480;2022-12-05T16:43:43;15.68;;;6.25;;
40997;SDS011;26740;45.944;12.480;2022-12-05T16:48:32;6.93;;;4.72;;
40997;SDS011;26740;45.944;12.480;2022-12-05T16:51:17;4.53;;;3.60;;
40997;SDS011;26740;45.944;12.480;2022-12-05T16:53:46;5.15;;;3.75;;
40997;SDS011;26740;45.944;12.480;2022-12-05T16:56:18;6.10;;;3.83;;
40997;SDS011;26740;45.944;12.480;2022-12-05T16:58:50;4.47;;;3.60;;
40997;SDS011;26740;45.944;12.480;2022-12-05T17:01:17;5.40;;;3.55;;
40997;SDS011;26740;45.944;12.480;2022-12-05T17:06:12;7.22;;;4.10;;
40997;SDS011;26740;45.944;12.480;2022-12-05T17:08:39;6.10;;;4.10;;
40997;SDS011;26740;45.944;12.480;2022-12-05T17:11:28;6.45;;;4.45;;
40997;SDS011;26740;45.944;12.480;2022-12-05T17:13:54;9.38;;;5.43;;
40997;SDS011;26740;45.944;12.480;2022-12-05T17:16:21;7.70;;;5.15;;
40997;SDS011;26740;45.944;12.480;2022-12-05T17:18:46;7.00;;;5.45;;
40997;SDS011;26740;45.944;12.480;2022-12-05T17:21:16;12.73;;;7.38;;
40997;SDS011;26740;45.944;12.480;2022-12-05T17:23:53;13.30;;;7.35;;
40997;SDS011;26740;45.944;12.480;2022-12-05T17:26:19;15.75;;;8.20;;
40997;SDS011;26740;45.944;12.480;2022-12-05T17:28:46;11.48;;;7.93;;
40997;SDS011;26740;45.944;12.480;2022-12-05T17:31:14;11.18;;;7.95;;
40997;SDS011;26740;45.944;12.480;2022-12-05T17:33:41;9.65;;;6.47;;
40997;SDS011;26740;45.944;12.480;2022-12-05T17:36:10;8.10;;;5.78;;
40997;SDS011;26740;45.944;12.480;2022-12-05T17:38:37;11.25;;;7.07;;
40997;SDS011;26740;45.944;12.480;2022-12-05T17:41:03;9.10;;;5.30;;
40997;SDS011;26740;45.944;12.480;2022-12-05T17:43:29;5.30;;;4.57;;
40997;SDS011;26740;45.944;12.480;2022-12-05T17:45:54;8.38;;;6.05;;
40997;SDS011;26740;45.944;12.480;2022-12-05T17:48:23;9.85;;;4.90;;
40997;SDS011;26740;45.944;12.480;2022-12-05T17:50:50;7.10;;;5.10;;
40997;SDS011;26740;45.944;12.480;2022-12-05T17:53:20;8.38;;;5.88;;
40997;SDS011;26740;45.944;12.480;2022-12-05T17:55:46;10.10;;;6.55;;
40997;SDS011;26740;45.944;12.480;2022-12-05T17:58:13;10.43;;;7.28;;
40997;SDS011;26740;45.944;12.480;2022-12-05T18:00:40;10.65;;;7.18;;
40997;SDS011;26740;45.944;12.480;2022-12-05T18:03:10;9.27;;;6.60;;
40997;SDS011;26740;45.944;12.480;2022-12-05T18:05:38;11.70;;;7.28;;
40997;SDS011;26740;45.944;12.480;2022-12-05T18:08:04;10.98;;;7.30;;
40997;SDS011;26740;45.944;12.480;2022-12-05T18:10:30;11.13;;;8.23;;
40997;SDS011;26740;45.944;12.480;2022-12-05T18:12:56;10.13;;;7.38;;
40997;SDS011;26740;45.944;12.480;2022-12-05T18:15:21;9.77;;;7.80;;
40997;SDS011;26740;45.944;12.480;2022-12-05T18:17:47;10.55;;;7.63;;